Time;durP1;ratioP1;P1;durP2;ratioP2;P2;SDS_P1;SDS_P2;PMS_P1;PMS_P2;Temp;Humidity;BMP_temperature;BMP_pressure;BME280_temperature;BME280_humidity;BME280_pressure;Samples;Min_cycle;Max_cycle;Signal;HPM_P1;HPM_P2
2021/11/05 00:01:57;;;;;;;11.53;10.93;;;8.20;99.90;;;;;;5052133;28;20452;-79
2021/11/05 00:04:25;;;;;;;11.70;11.20;;;8.20;99.90;;;;;;5052003;28;20452;-78
2021/11/05 00:06:52;;;;;;;11.33;10.83;;;8.20;99.90;;;;;;5052218;28;20460;-77
2021/11/05 00:09:19;;;;;;;12.30;11.60;;;8.20;99.90;;;;;;5051961;28;20940;-77
2021/11/05 00:11:45;;;;;;;11.97;11.47;;;8.20;99.90;;;;;;5051787;28;20899;-80
2021/11/05 00:14:12;;;;;;;11.87;11.37;;;8.30;99.90;;;;;;5051822;28;20880;-80
2021/11/05 00:16:39;;;;;;;12.50;12.00;;;8.30;99.90;;;;;;5051850;28;20460;-81
2021/11/05 00:19:05;;;;;;;12.80;12.00;;;8.30;99.90;;;;;;5052086;28;20460;-81
2021/11/05 00:21:33;;;;;;;12.37;11.77;;;8.30;99.90;;;;;;5051819;28;20452;-81
2021/11/05 00:24:00;;;;;;;11.77;11.27;;;8.30;99.90;;;;;;5051405;28;20451;-81
2021/11/05 00:26:28;;;;;;;12.50;11.90;;;8.20;99.90;;;;;;5051908;28;20851;-81
2021/11/05 00:28:54;;;;;;;12.20;11.60;;;8.30;99.90;;;;;;5051634;28;20451;-81
2021/11/05 00:31:21;;;;;;;12.03;11.50;;;8.30;99.90;;;;;;5051923;28;20468;-82
2021/11/05 00:33:48;;;;;;;12.33;11.73;;;8.30;99.90;;;;;;5050623;28;20574;-83
2021/11/05 00:36:14;;;;;;;12.90;12.37;;;8.30;99.90;;;;;;5051972;28;20514;-82
2021/11/05 00:38:43;;;;;;;12.47;11.87;;;8.30;99.90;;;;;;5051817;28;20452;-82
2021/11/05 00:41:11;;;;;;;13.07;12.37;;;8.40;99.90;;;;;;5051702;28;20597;-82
2021/11/05 00:43:38;;;;;;;13.17;12.57;;;8.30;99.90;;;;;;5051594;28;20467;-82
2021/11/05 00:46:05;;;;;;;14.17;13.57;;;8.20;99.90;;;;;;5051538;28;20784;-80
2021/11/05 00:48:32;;;;;;;15.07;14.23;;;8.20;99.90;;;;;;5050875;28;20537;-79
2021/11/05 00:50:59;;;;;;;14.90;14.23;;;8.20;99.90;;;;;;5051034;28;20994;-79
2021/11/05 00:53:26;;;;;;;15.50;14.90;;;8.10;99.90;;;;;;5051229;28;20488;-80
2021/11/05 00:55:54;;;;;;;16.43;15.63;;;8.00;99.90;;;;;;5050973;28;20942;-77
2021/11/05 00:58:21;;;;;;;17.07;16.10;;;8.00;99.90;;;;;;5051134;28;20509;-77
2021/11/05 01:00:48;;;;;;;16.30;15.60;;;7.90;99.90;;;;;;5050956;28;20459;-76
2021/11/05 01:03:14;;;;;;;16.33;15.63;;;7.90;99.90;;;;;;5050882;28;20451;-76
2021/11/05 01:05:41;;;;;;;17.00;16.20;;;7.90;99.90;;;;;;5050718;28;20447;-77
2021/11/05 01:08:09;;;;;;;18.23;17.33;;;7.90;99.90;;;;;;5050999;28;20456;-75
2021/11/05 01:10:37;;;;;;;19.97;19.07;;;7.80;99.90;;;;;;5050969;28;20539;-76
2021/11/05 01:13:07;;;;;;;21.60;20.60;;;7.90;99.90;;;;;;5050910;28;20567;-76
2021/11/05 01:15:34;;;;;;;20.40;19.60;;;7.80;99.90;;;;;;5050961;28;20471;-75
2021/11/05 01:18:01;;;;;;;22.00;20.80;;;7.70;99.90;;;;;;5050688;28;20475;-75
2021/11/05 01:20:28;;;;;;;21.83;20.80;;;7.80;99.90;;;;;;5050679;28;20459;-77
2021/11/05 01:22:55;;;;;;;22.37;21.17;;;7.70;99.90;;;;;;5050487;28;20459;-77
2021/11/05 01:25:22;;;;;;;22.57;21.47;;;7.70;99.90;;;;;;5050800;28;20460;-75
2021/11/05 01:27:50;;;;;;;22.20;21.30;;;7.70;99.90;;;;;;5050656;28;20451;-75
2021/11/05 01:30:18;;;;;;;24.80;23.50;;;7.60;99.90;;;;;;5050736;28;20533;-75
2021/11/05 01:32:46;;;;;;;23.13;22.03;;;7.60;99.90;;;;;;5050428;28;20571;-75
2021/11/05 01:35:13;;;;;;;22.53;21.53;;;7.50;99.90;;;;;;5050403;28;20812;-75
2021/11/05 01:37:41;;;;;;;22.07;21.07;;;7.50;99.90;;;;;;5050294;28;20459;-76
2021/11/05 01:40:09;;;;;;;24.37;23.07;;;7.50;99.90;;;;;;5050436;28;20463;-75
2021/11/05 01:42:36;;;;;;;23.80;22.80;;;7.50;99.90;;;;;;5050385;28;20451;-75
2021/11/05 01:45:04;;;;;;;23.70;22.50;;;7.60;99.90;;;;;;5052144;28;20521;-75
2021/11/05 01:47:32;;;;;;;22.80;21.80;;;7.60;99.90;;;;;;5051873;28;20455;-76
2021/11/05 01:49:59;;;;;;;24.40;23.13;;;7.50;99.90;;;;;;5050294;28;21001;-75
2021/11/05 01:52:26;;;;;;;24.10;22.90;;;7.50;99.90;;;;;;5050129;28;20495;-74
2021/11/05 01:54:53;;;;;;;24.60;23.33;;;7.50;99.90;;;;;;5050186;28;20459;-74
2021/11/05 01:57:20;;;;;;;24.43;23.43;;;7.50;99.90;;;;;;5050346;28;20463;-75
2021/11/05 01:59:51;;;;;;;25.90;24.67;;;7.50;99.90;;;;;;5050269;28;20456;-74
2021/11/05 02:02:18;;;;;;;25.80;24.60;;;7.50;99.90;;;;;;5050407;28;20471;-74
2021/11/05 02:04:46;;;;;;;27.07;25.77;;;7.50;99.90;;;;;;5050001;28;20458;-74
2021/11/05 02:07:14;;;;;;;29.10;27.63;;;7.60;99.90;;;;;;5050193;28;21185;-76
2021/11/05 02:09:42;;;;;;;27.97;26.67;;;7.60;99.90;;;;;;5049997;28;20513;-75
2021/11/05 02:12:10;;;;;;;27.10;26.00;;;7.60;99.90;;;;;;5049922;28;20491;-76
2021/11/05 02:14:39;;;;;;;29.50;28.10;;;7.50;99.90;;;;;;5050322;28;20794;-77
2021/11/05 02:17:05;;;;;;;30.53;29.13;;;7.40;99.90;;;;;;5050240;28;20451;-79
2021/11/05 02:19:34;;;;;;;30.73;29.33;;;7.40;99.90;;;;;;5050093;28;20459;-79
2021/11/05 02:22:02;;;;;;;29.57;28.17;;;7.30;99.90;;;;;;5050189;28;20443;-77
2021/11/05 02:24:30;;;;;;;30.60;29.20;;;7.30;99.90;;;;;;5049657;28;20984;-77
2021/11/05 02:26:58;;;;;;;31.60;30.10;;;7.20;99.90;;;;;;5049983;28;20609;-77
2021/11/05 02:29:26;;;;;;;32.47;30.90;;;7.30;99.90;;;;;;5049987;28;20448;-77
2021/11/05 02:31:54;;;;;;;31.03;29.63;;;7.20;99.90;;;;;;5049795;28;20893;-80
2021/11/05 02:34:20;;;;;;;31.60;30.20;;;7.20;99.90;;;;;;5049736;28;20452;-77
2021/11/05 02:36:48;;;;;;;31.63;30.13;;;7.20;99.90;;;;;;5049841;28;20448;-80
2021/11/05 02:39:16;;;;;;;32.03;30.43;;;7.20;99.90;;;;;;5049870;28;20460;-77
2021/11/05 02:41:45;;;;;;;30.83;29.23;;;7.20;99.90;;;;;;5049711;28;20472;-79
2021/11/05 02:44:12;;;;;;;31.03;29.53;;;7.20;99.90;;;;;;5049718;28;20454;-77
2021/11/05 02:46:39;;;;;;;32.00;30.23;;;7.10;99.90;;;;;;5049822;28;20478;-78
2021/11/05 02:49:09;;;;;;;31.70;30.00;;;7.10;99.90;;;;;;5049834;28;20490;-77
2021/11/05 02:51:37;;;;;;;30.50;28.90;;;7.10;99.90;;;;;;5049873;28;20455;-79
2021/11/05 02:54:06;;;;;;;30.17;28.60;;;7.10;99.90;;;;;;5049826;28;20488;-79
2021/11/05 02:56:34;;;;;;;29.50;28.10;;;7.10;99.90;;;;;;5051126;28;20455;-80
2021/11/05 02:59:00;;;;;;;28.87;27.53;;;7.10;99.90;;;;;;5053223;28;20960;-78
2021/11/05 03:01:29;;;;;;;29.57;28.17;;;7.10;99.90;;;;;;5053195;28;21018;-80
2021/11/05 03:03:59;;;;;;;28.43;27.03;;;7.10;99.90;;;;;;5052902;28;20947;-82
2021/11/05 03:06:26;;;;;;;29.87;28.50;;;7.10;99.90;;;;;;5053119;28;20451;-81
2021/11/05 03:08:53;;;;;;;30.00;28.53;;;7.10;99.90;;;;;;5053144;28;20509;-82
2021/11/05 03:11:20;;;;;;;30.70;29.03;;;7.10;99.90;;;;;;5053324;28;20939;-82
2021/11/05 03:13:48;;;;;;;30.87;29.37;;;7.10;99.90;;;;;;5052626;28;20495;-81
2021/11/05 03:16:14;;;;;;;30.40;28.80;;;7.20;99.90;;;;;;5053173;28;20786;-82
2021/11/05 03:18:42;;;;;;;32.17;30.43;;;7.30;99.90;;;;;;5052922;28;20569;-83
2021/11/05 03:21:09;;;;;;;31.47;29.67;;;7.20;99.90;;;;;;5053147;28;20458;-83
2021/11/05 03:23:36;;;;;;;29.80;28.30;;;7.30;99.90;;;;;;5053139;28;20448;-83
2021/11/05 03:26:04;;;;;;;30.53;29.03;;;7.20;99.90;;;;;;5052873;28;20451;-82
2021/11/05 03:28:31;;;;;;;30.80;29.17;;;7.20;99.90;;;;;;5052660;28;20448;-82
2021/11/05 03:30:59;;;;;;;29.73;28.13;;;7.30;99.90;;;;;;5052784;28;20483;-84
2021/11/05 03:33:26;;;;;;;31.50;29.70;;;7.20;99.90;;;;;;5052434;28;20575;-81
2021/11/05 03:35:52;;;;;;;28.60;27.10;;;7.30;99.90;;;;;;5052709;28;20452;-79
2021/11/05 03:38:19;;;;;;;30.10;28.50;;;7.30;99.90;;;;;;5053000;28;20455;-79
2021/11/05 03:40:46;;;;;;;28.40;26.90;;;7.20;99.90;;;;;;5052123;28;20456;-79
2021/11/05 03:43:13;;;;;;;28.53;27.13;;;7.20;99.90;;;;;;5052438;28;20474;-79
2021/11/05 03:45:39;;;;;;;27.83;26.37;;;7.20;99.90;;;;;;5052625;28;20458;-79
2021/11/05 03:48:07;;;;;;;27.87;26.47;;;7.30;99.90;;;;;;5052243;28;20537;-79
2021/11/05 03:50:34;;;;;;;28.37;26.70;;;7.30;99.90;;;;;;5052492;28;20462;-78
2021/11/05 03:53:01;;;;;;;28.43;26.73;;;7.20;99.90;;;;;;5052314;28;20542;-79
2021/11/05 03:55:28;;;;;;;28.33;26.80;;;7.20;99.90;;;;;;5052111;28;20448;-78
2021/11/05 03:57:55;;;;;;;28.47;26.97;;;7.10;99.90;;;;;;5052043;28;20458;-79
2021/11/05 04:00:21;;;;;;;28.63;26.87;;;7.10;99.90;;;;;;5052183;28;20455;-79
2021/11/05 04:02:48;;;;;;;27.27;25.90;;;7.10;99.90;;;;;;5052204;28;20456;-78
2021/11/05 04:05:16;;;;;;;26.73;25.37;;;7.20;99.90;;;;;;5051699;28;20486;-80
2021/11/05 04:07:43;;;;;;;27.33;25.93;;;7.10;99.90;;;;;;5051988;28;20494;-79
2021/11/05 04:10:11;;;;;;;27.20;25.80;;;7.20;99.90;;;;;;5051819;28;20956;-80
2021/11/05 04:12:38;;;;;;;27.87;26.20;;;7.30;99.90;;;;;;5051834;28;20559;-80
2021/11/05 04:15:05;;;;;;;27.10;25.70;;;7.20;99.90;;;;;;5052249;28;20463;-79
2021/11/05 04:17:32;;;;;;;27.40;25.80;;;7.20;99.90;;;;;;5051737;28;20817;-79
2021/11/05 04:19:59;;;;;;;27.90;26.40;;;7.20;99.90;;;;;;5051612;28;21046;-80
2021/11/05 04:22:27;;;;;;;27.07;25.57;;;7.20;99.90;;;;;;5051963;28;20800;-78
2021/11/05 04:24:54;;;;;;;26.67;25.37;;;7.20;99.90;;;;;;5051662;28;20972;-78
2021/11/05 04:27:20;;;;;;;25.03;23.93;;;7.20;99.90;;;;;;5051884;28;20988;-76
2021/11/05 04:29:47;;;;;;;25.03;23.83;;;7.20;99.90;;;;;;5051431;28;20455;-75
2021/11/05 04:32:14;;;;;;;24.63;23.43;;;7.30;99.90;;;;;;5051451;28;20540;-76
2021/11/05 04:34:41;;;;;;;23.97;22.90;;;7.40;99.90;;;;;;5051385;28;20499;-75
2021/11/05 04:37:08;;;;;;;24.93;23.73;;;7.50;99.90;;;;;;5051612;28;20456;-75
2021/11/05 04:39:36;;;;;;;26.27;24.67;;;7.50;99.90;;;;;;5051532;28;20463;-76
2021/11/05 04:42:03;;;;;;;24.13;22.83;;;7.50;99.90;;;;;;5051435;28;20447;-75
2021/11/05 04:44:30;;;;;;;25.23;24.03;;;7.50;99.90;;;;;;5051238;28;20893;-76
2021/11/05 04:46:56;;;;;;;25.60;24.30;;;7.50;99.90;;;;;;5051104;28;20946;-75
2021/11/05 04:49:23;;;;;;;24.07;22.90;;;7.50;99.90;;;;;;5050969;28;20491;-75
2021/11/05 04:51:50;;;;;;;25.03;23.83;;;7.50;99.90;;;;;;5051534;28;20856;-75
2021/11/05 04:54:17;;;;;;;24.90;23.67;;;7.50;99.90;;;;;;5051022;28;20569;-75
2021/11/05 04:56:45;;;;;;;23.97;22.77;;;7.60;99.90;;;;;;5050951;28;20460;-74
2021/11/05 04:59:12;;;;;;;26.10;24.80;;;7.50;99.90;;;;;;5050841;28;20844;-75
2021/11/05 05:01:38;;;;;;;24.67;23.50;;;7.50;99.90;;;;;;5050856;28;20456;-75
2021/11/05 05:04:05;;;;;;;24.70;23.50;;;7.50;99.90;;;;;;5050882;28;20447;-75
2021/11/05 05:06:32;;;;;;;23.70;22.33;;;7.50;99.90;;;;;;5050976;28;20454;-75
2021/11/05 05:08:58;;;;;;;23.07;21.83;;;7.50;99.90;;;;;;5050679;28;20965;-75
2021/11/05 05:11:25;;;;;;;24.20;23.00;;;7.50;99.90;;;;;;5050572;28;20459;-74
2021/11/05 05:13:53;;;;;;;23.07;22.07;;;7.50;99.90;;;;;;5050797;28;20519;-73
2021/11/05 05:16:20;;;;;;;25.47;23.97;;;7.50;99.90;;;;;;5050844;28;20463;-75
2021/11/05 05:18:47;;;;;;;28.67;27.13;;;7.50;99.90;;;;;;5050161;28;20464;-74
2021/11/05 05:21:14;;;;;;;30.17;28.57;;;7.40;99.90;;;;;;5050620;28;20765;-76
2021/11/05 05:23:40;;;;;;;33.00;31.00;;;7.40;99.90;;;;;;5050580;28;20451;-74
2021/11/05 05:26:07;;;;;;;32.77;31.07;;;7.40;99.90;;;;;;5050806;28;20794;-75
2021/11/05 05:28:34;;;;;;;30.97;29.37;;;7.50;99.90;;;;;;5050743;28;20506;-76
2021/11/05 05:31:07;;;;;;;30.60;29.00;;;7.50;99.90;;;;;;5050066;28;20472;-74
2021/11/05 05:33:35;;;;;;;29.93;28.43;;;7.40;99.90;;;;;;5050263;28;21044;-74
2021/11/05 05:36:02;;;;;;;30.07;28.67;;;7.40;99.90;;;;;;5050671;28;20459;-76
2021/11/05 05:38:29;;;;;;;29.23;27.83;;;7.40;99.90;;;;;;5050118;28;20456;-75
2021/11/05 05:40:56;;;;;;;30.43;28.83;;;7.40;99.90;;;;;;5050110;28;20944;-74
2021/11/05 05:43:22;;;;;;;29.57;28.17;;;7.50;99.90;;;;;;5050399;28;20448;-74
2021/11/05 05:45:49;;;;;;;29.27;27.97;;;7.50;99.90;;;;;;5050372;28;20458;-75
2021/11/05 05:48:17;;;;;;;29.63;28.23;;;7.50;99.90;;;;;;5050108;28;20487;-77
2021/11/05 05:50:44;;;;;;;29.53;28.03;;;7.40;99.90;;;;;;5050277;28;21080;-75
2021/11/05 05:53:11;;;;;;;29.70;28.20;;;7.40;99.90;;;;;;5050024;28;20495;-74
2021/11/05 05:55:38;;;;;;;29.83;28.27;;;7.40;99.90;;;;;;5050514;28;20530;-75
2021/11/05 05:58:06;;;;;;;29.23;27.83;;;7.40;99.90;;;;;;5050484;28;20462;-75
2021/11/05 06:00:34;;;;;;;29.93;28.40;;;7.50;99.90;;;;;;5050393;28;20487;-75
2021/11/05 06:03:01;;;;;;;29.43;28.07;;;7.50;99.90;;;;;;5050018;28;20805;-74
2021/11/05 06:05:29;;;;;;;29.10;27.73;;;7.60;99.90;;;;;;5049811;28;20451;-74
2021/11/05 06:07:56;;;;;;;29.40;27.80;;;7.60;99.90;;;;;;5049857;28;20447;-74
2021/11/05 06:10:22;;;;;;;29.40;28.00;;;7.50;99.90;;;;;;5050070;28;20946;-74
2021/11/05 06:12:49;;;;;;;30.23;28.73;;;7.50;99.90;;;;;;5050395;28;20448;-74
2021/11/05 06:15:16;;;;;;;28.73;27.33;;;7.50;99.90;;;;;;5049924;28;20833;-74
2021/11/05 06:17:43;;;;;;;30.10;28.60;;;7.60;99.90;;;;;;5049941;28;20856;-75
2021/11/05 06:20:10;;;;;;;28.50;26.97;;;7.60;99.90;;;;;;5050099;28;20475;-74
2021/11/05 06:22:38;;;;;;;29.90;28.30;;;7.60;99.90;;;;;;5050086;28;20983;-74
2021/11/05 06:25:06;;;;;;;29.20;27.70;;;7.70;99.90;;;;;;5049969;28;20938;-74
2021/11/05 06:27:33;;;;;;;31.83;30.03;;;7.70;99.90;;;;;;5049971;28;20456;-73
2021/11/05 06:29:59;;;;;;;29.97;28.37;;;7.70;99.90;;;;;;5049535;28;20476;-74
2021/11/05 06:32:26;;;;;;;28.20;26.70;;;7.60;99.90;;;;;;5052671;28;20455;-73
2021/11/05 06:34:53;;;;;;;29.17;27.40;;;7.60;99.90;;;;;;5053626;28;20499;-74
2021/11/05 06:37:20;;;;;;;29.57;27.97;;;7.60;99.90;;;;;;5054162;28;20459;-75
2021/11/05 06:39:49;;;;;;;27.77;26.37;;;7.70;99.90;;;;;;5053320;28;20456;-75
2021/11/05 06:42:20;;;;;;;28.77;27.13;;;7.80;99.90;;;;;;5053324;28;20879;-75
2021/11/05 06:44:47;;;;;;;30.10;28.50;;;7.90;99.90;;;;;;5053468;28;20444;-74
2021/11/05 06:47:14;;;;;;;31.60;29.90;;;7.80;99.90;;;;;;5053370;28;20455;-75
2021/11/05 06:49:41;;;;;;;30.50;28.90;;;7.80;99.90;;;;;;5052913;28;20555;-76
2021/11/05 06:52:07;;;;;;;31.53;29.70;;;7.70;99.90;;;;;;5053586;28;20450;-73
2021/11/05 06:54:37;;;;;;;31.30;29.70;;;7.70;99.90;;;;;;5053694;28;21008;-77
2021/11/05 06:57:06;;;;;;;31.03;29.43;;;7.60;99.90;;;;;;5053865;28;20527;-74
2021/11/05 06:59:33;;;;;;;30.63;29.03;;;7.80;99.90;;;;;;5053933;28;21018;-77
2021/11/05 07:02:00;;;;;;;31.37;29.67;;;7.80;99.90;;;;;;5053597;28;20454;-78
2021/11/05 07:04:26;;;;;;;30.50;28.53;;;7.70;99.90;;;;;;5054018;28;20851;-80
2021/11/05 07:06:53;;;;;;;34.07;32.27;;;7.80;99.90;;;;;;5053711;28;20797;-79
2021/11/05 07:09:21;;;;;;;32.53;30.90;;;7.70;99.90;;;;;;5053840;28;20452;-81
2021/11/05 07:11:47;;;;;;;32.43;30.83;;;7.70;99.90;;;;;;5053597;28;20463;-79
2021/11/05 07:14:16;;;;;;;33.00;31.30;;;7.70;99.90;;;;;;5053783;28;20483;-78
2021/11/05 07:16:43;;;;;;;33.57;31.87;;;7.70;99.90;;;;;;5053623;28;20444;-79
2021/11/05 07:19:10;;;;;;;35.00;33.17;;;7.60;99.90;;;;;;5053007;28;20448;-78
2021/11/05 07:21:37;;;;;;;34.83;32.93;;;7.60;99.90;;;;;;5053275;28;20455;-77
2021/11/05 07:24:04;;;;;;;33.13;31.43;;;7.60;99.90;;;;;;5053140;28;20444;-78
2021/11/05 07:26:36;;;;;;;33.57;31.80;;;7.70;99.90;;;;;;5052915;28;20455;-78
2021/11/05 07:29:04;;;;;;;32.00;30.40;;;7.70;99.90;;;;;;5053110;28;20482;-76
2021/11/05 07:31:34;;;;;;;32.50;30.90;;;7.70;99.90;;;;;;5052612;28;20973;-76
2021/11/05 07:34:01;;;;;;;32.97;31.27;;;7.70;99.90;;;;;;5052544;28;20480;-75
2021/11/05 07:36:28;;;;;;;32.70;31.00;;;7.70;99.90;;;;;;5051042;28;20459;-74
2021/11/05 07:38:55;;;;;;;32.93;31.03;;;7.70;99.90;;;;;;5050976;28;20517;-73
2021/11/05 07:41:24;;;;;;;32.23;30.57;;;7.70;99.90;;;;;;5052082;28;20463;-72
2021/11/05 07:43:52;;;;;;;31.10;29.43;;;7.70;99.90;;;;;;5052714;28;20444;-72
2021/11/05 07:46:19;;;;;;;32.67;30.87;;;7.60;99.90;;;;;;5052405;28;20950;-72
2021/11/05 07:48:47;;;;;;;32.20;30.50;;;7.60;99.90;;;;;;5052116;28;20487;-72
2021/11/05 07:51:13;;;;;;;32.13;30.43;;;7.70;99.90;;;;;;5052386;28;20461;-72
2021/11/05 07:53:40;;;;;;;31.77;30.27;;;7.70;99.90;;;;;;5052276;28;20448;-72
2021/11/05 07:56:07;;;;;;;31.60;29.70;;;7.70;99.90;;;;;;5052717;28;20464;-71
2021/11/05 07:58:34;;;;;;;32.43;30.47;;;7.70;99.90;;;;;;5051051;28;20451;-72
2021/11/05 08:01:00;;;;;;;30.47;28.97;;;7.70;99.90;;;;;;5052143;28;20464;-71
2021/11/05 08:03:27;;;;;;;32.00;30.30;;;7.80;99.90;;;;;;5051696;28;20444;-72
2021/11/05 08:05:55;;;;;;;31.50;29.90;;;7.90;99.90;;;;;;5051994;28;20452;-71
2021/11/05 08:08:22;;;;;;;31.80;30.10;;;7.90;99.90;;;;;;5051932;28;20817;-71
2021/11/05 08:10:49;;;;;;;30.70;29.17;;;7.90;99.90;;;;;;5051990;28;20460;-72
2021/11/05 08:13:15;;;;;;;30.43;28.93;;;8.00;99.90;;;;;;5051939;28;20972;-72
2021/11/05 08:15:42;;;;;;;31.10;29.40;;;8.00;99.90;;;;;;5051791;28;20484;-72
2021/11/05 08:18:09;;;;;;;30.43;28.93;;;8.10;99.90;;;;;;5051762;28;20478;-71
2021/11/05 08:20:36;;;;;;;32.60;30.80;;;8.10;99.90;;;;;;5052008;28;20451;-72
2021/11/05 08:23:04;;;;;;;32.60;30.70;;;8.20;99.90;;;;;;5051826;28;20461;-72
2021/11/05 08:25:31;;;;;;;32.83;31.03;;;8.30;99.90;;;;;;5051697;28;20934;-72
2021/11/05 08:27:59;;;;;;;32.43;30.30;;;8.30;99.90;;;;;;5051623;28;20572;-72
2021/11/05 08:30:26;;;;;;;29.57;28.00;;;8.50;99.90;;;;;;5051535;28;21016;-72
2021/11/05 08:32:55;;;;;;;31.57;29.33;;;8.60;99.90;;;;;;5051468;28;20817;-72
2021/11/05 08:35:24;;;;;;;30.20;28.70;;;8.70;99.90;;;;;;5049712;28;20514;-72
2021/11/05 08:37:51;;;;;;;29.90;28.10;;;8.70;99.90;;;;;;5048812;28;20456;-72
2021/11/05 08:40:20;;;;;;;29.93;28.23;;;8.70;99.90;;;;;;5051436;28;20858;-72
2021/11/05 08:42:47;;;;;;;27.50;25.97;;;8.60;99.90;;;;;;5051710;28;20448;-73
2021/11/05 08:45:14;;;;;;;26.07;24.67;;;8.50;99.90;;;;;;5051624;28;20441;-72
2021/11/05 08:47:42;;;;;;;27.23;25.93;;;8.50;99.90;;;;;;5051327;28;20453;-72
2021/11/05 08:50:12;;;;;;;25.70;24.50;;;8.50;99.90;;;;;;5050954;28;20531;-73
2021/11/05 08:52:40;;;;;;;26.60;25.20;;;8.60;99.90;;;;;;5051153;28;20455;-73
2021/11/05 08:55:09;;;;;;;25.07;23.77;;;8.70;99.90;;;;;;5050437;28;20492;-73
2021/11/05 08:57:38;;;;;;;25.13;23.90;;;8.80;99.90;;;;;;5051264;28;20448;-71
2021/11/05 09:00:08;;;;;;;24.83;23.43;;;9.00;99.90;;;;;;5051289;28;20466;-71
2021/11/05 09:02:35;;;;;;;22.83;21.43;;;9.10;99.90;;;;;;5049658;28;20456;-72
2021/11/05 09:05:03;;;;;;;21.70;20.60;;;9.30;99.90;;;;;;5050899;28;20451;-72
2021/11/05 09:07:29;;;;;;;21.93;20.43;;;9.40;99.90;;;;;;5050882;28;20487;-72
2021/11/05 09:09:57;;;;;;;20.03;19.03;;;9.40;99.90;;;;;;5050883;28;20456;-72
2021/11/05 09:12:23;;;;;;;19.47;18.57;;;9.60;99.90;;;;;;5050879;28;20460;-72
2021/11/05 09:14:51;;;;;;;19.33;18.27;;;9.70;99.90;;;;;;5050936;28;20529;-72
2021/11/05 09:17:18;;;;;;;19.63;18.63;;;10.10;99.90;;;;;;5050842;28;20452;-72
2021/11/05 09:19:45;;;;;;;17.67;16.80;;;10.20;99.90;;;;;;5050594;28;20459;-72
2021/11/05 09:22:12;;;;;;;17.10;16.20;;;10.10;99.90;;;;;;5050592;28;20448;-72
2021/11/05 09:24:39;;;;;;;16.90;15.90;;;10.10;99.90;;;;;;5050476;28;20455;-72
2021/11/05 09:27:06;;;;;;;17.23;16.30;;;10.30;99.90;;;;;;5050610;28;20451;-72
2021/11/05 09:29:33;;;;;;;14.90;14.20;;;10.60;99.90;;;;;;5050558;28;20463;-72
2021/11/05 09:32:01;;;;;;;14.77;14.10;;;11.00;99.90;;;;;;5050143;28;20832;-72
2021/11/05 09:34:31;;;;;;;14.83;13.93;;;11.00;99.90;;;;;;5050210;28;20487;-72
2021/11/05 09:36:59;;;;;;;14.30;13.50;;;11.00;99.90;;;;;;5050239;28;20452;-72
2021/11/05 09:39:26;;;;;;;14.13;13.43;;;11.20;99.90;;;;;;5050086;28;20893;-72
2021/11/05 09:41:52;;;;;;;13.93;13.23;;;11.60;99.90;;;;;;5050445;28;20939;-72
2021/11/05 09:44:20;;;;;;;13.03;12.33;;;11.90;99.90;;;;;;5050748;28;20448;-72
2021/11/05 09:46:47;;;;;;;12.83;12.23;;;12.10;99.90;;;;;;5050310;28;20788;-72
2021/11/05 09:49:15;;;;;;;13.10;12.40;;;12.50;99.90;;;;;;5050406;28;20981;-73
2021/11/05 09:51:42;;;;;;;13.83;13.03;;;12.60;99.90;;;;;;5050859;28;20462;-72
2021/11/05 09:54:10;;;;;;;13.80;12.87;;;12.30;99.90;;;;;;5050677;28;20444;-72
2021/11/05 09:56:37;;;;;;;13.90;13.10;;;12.40;99.90;;;;;;5050843;28;20448;-72
2021/11/05 09:59:04;;;;;;;13.63;12.90;;;12.60;99.90;;;;;;5050580;28;20448;-72
2021/11/05 10:01:31;;;;;;;12.43;11.80;;;13.00;99.90;;;;;;5050407;28;20456;-72
2021/11/05 10:03:57;;;;;;;13.57;12.97;;;13.50;99.90;;;;;;5050229;28;20533;-82
2021/11/05 10:06:25;;;;;;;13.37;12.77;;;13.80;99.90;;;;;;5061991;28;20506;-72
2021/11/05 10:08:53;;;;;;;12.37;11.67;;;13.90;99.90;;;;;;5054601;28;20452;-72
2021/11/05 10:11:24;;;;;;;12.80;12.10;;;14.00;99.90;;;;;;5052906;28;20448;-71
2021/11/05 10:13:51;;;;;;;12.70;12.20;;;14.00;99.90;;;;;;5054460;28;20491;-71
2021/11/05 10:16:20;;;;;;;12.87;12.37;;;14.00;99.90;;;;;;5054234;28;20537;-70
2021/11/05 10:19:00;;;;;;;13.10;12.43;;;13.90;99.90;;;;;;5053740;28;20458;-72
2021/11/05 10:21:38;;;;;;;13.73;13.03;;;13.80;99.90;;;;;;5054128;28;21116;-73
2021/11/05 10:24:10;;;;;;;13.40;12.80;;;13.70;99.90;;;;;;5054144;28;20455;-71
2021/11/05 10:26:37;;;;;;;13.67;13.07;;;13.40;99.90;;;;;;5054048;28;20562;-72
2021/11/05 10:29:06;;;;;;;14.20;13.30;;;13.00;99.90;;;;;;5054400;28;20509;-72
2021/11/05 10:31:34;;;;;;;12.53;12.03;;;12.70;99.90;;;;;;5053999;28;20534;-72
2021/11/05 10:34:01;;;;;;;14.33;13.50;;;12.60;99.90;;;;;;5053791;28;20494;-72
2021/11/05 10:36:30;;;;;;;14.13;13.43;;;12.30;99.90;;;;;;5053812;28;20484;-72
2021/11/05 10:39:00;;;;;;;12.73;12.13;;;12.30;99.90;;;;;;5053895;28;20478;-72
2021/11/05 10:41:29;;;;;;;12.60;12.00;;;12.50;99.90;;;;;;5053751;28;20448;-73
2021/11/05 10:43:57;;;;;;;13.27;12.67;;;12.50;99.90;;;;;;5053448;28;20460;-73
2021/11/05 10:46:27;;;;;;;13.43;12.80;;;12.60;99.90;;;;;;5053680;28;20451;-73
2021/11/05 10:48:55;;;;;;;14.20;13.60;;;12.50;99.90;;;;;;5053460;28;20484;-71
2021/11/05 10:51:24;;;;;;;13.43;12.73;;;12.80;99.90;;;;;;5053637;28;20486;-73
2021/11/05 10:53:53;;;;;;;14.30;13.50;;;12.70;99.90;;;;;;5053541;28;20452;-70
2021/11/05 10:56:24;;;;;;;13.70;13.00;;;12.60;99.90;;;;;;5053579;28;20479;-72
2021/11/05 10:58:56;;;;;;;13.27;12.57;;;12.70;99.90;;;;;;5053626;28;20452;-73
2021/11/05 11:01:25;;;;;;;15.13;14.13;;;12.60;99.90;;;;;;5053134;28;20539;-72
2021/11/05 11:03:53;;;;;;;13.97;13.10;;;12.50;99.90;;;;;;5053397;28;20459;-73
2021/11/05 11:06:22;;;;;;;14.90;14.10;;;12.30;99.90;;;;;;5053615;28;20447;-73
2021/11/05 11:08:50;;;;;;;15.30;14.40;;;12.30;99.90;;;;;;5053251;28;20444;-73
2021/11/05 11:11:24;;;;;;;14.50;13.60;;;12.40;99.90;;;;;;5053139;28;20440;-74
2021/11/05 11:13:52;;;;;;;14.90;13.97;;;12.50;99.90;;;;;;5053147;28;20950;-73
2021/11/05 11:16:25;;;;;;;14.77;13.97;;;12.80;99.90;;;;;;5052897;28;20495;-73
2021/11/05 11:18:56;;;;;;;14.63;13.83;;;12.90;99.90;;;;;;5052552;28;20448;-73
2021/11/05 11:21:24;;;;;;;14.67;13.60;;;12.90;99.90;;;;;;5053039;28;20450;-73
2021/11/05 11:23:51;;;;;;;14.10;13.37;;;12.90;99.90;;;;;;5053150;28;20444;-74
2021/11/05 11:26:19;;;;;;;14.00;13.00;;;12.90;99.90;;;;;;5052627;28;20493;-73
2021/11/05 11:28:47;;;;;;;13.67;12.97;;;12.70;99.90;;;;;;5053047;28;20505;-73
2021/11/05 11:31:16;;;;;;;13.60;12.80;;;12.70;99.90;;;;;;5052556;28;20479;-73
2021/11/05 11:33:43;;;;;;;14.37;13.33;;;12.60;99.90;;;;;;5052908;28;20459;-72
2021/11/05 11:36:12;;;;;;;14.07;13.37;;;12.40;99.90;;;;;;5052773;28;20483;-74
2021/11/05 11:38:40;;;;;;;13.83;13.00;;;12.40;99.90;;;;;;5052752;28;20444;-72
2021/11/05 11:41:09;;;;;;;13.73;13.13;;;12.80;99.90;;;;;;5052821;28;20443;-74
2021/11/05 11:43:37;;;;;;;14.60;13.87;;;13.00;99.90;;;;;;5052836;28;20487;-74
2021/11/05 11:46:05;;;;;;;15.03;14.23;;;13.20;99.90;;;;;;5052735;28;20444;-73
2021/11/05 11:48:44;;;;;;;14.20;13.47;;;13.50;99.90;;;;;;5051887;28;20484;-73
2021/11/05 11:51:33;;;;;;;15.20;14.30;;;13.60;99.90;;;;;;5052574;28;20452;-73
2021/11/05 11:54:28;;;;;;;14.70;13.90;;;13.50;99.90;;;;;;5052265;28;20448;-73
2021/11/05 11:56:56;;;;;;;14.83;13.93;;;13.40;99.90;;;;;;5052132;28;20825;-72
2021/11/05 11:59:31;;;;;;;14.43;13.67;;;13.80;99.90;;;;;;5052241;28;20544;-72
2021/11/05 12:01:59;;;;;;;14.10;13.30;;;14.10;99.90;;;;;;5052029;28;20455;-73
2021/11/05 12:04:33;;;;;;;16.70;15.60;;;14.10;99.90;;;;;;5052001;28;20448;-73
2021/11/05 12:07:03;;;;;;;14.53;13.73;;;14.20;99.90;;;;;;5051909;28;20990;-73
2021/11/05 12:09:34;;;;;;;15.17;14.47;;;14.10;99.90;;;;;;5051944;28;20456;-74
2021/11/05 12:12:43;;;;;;;14.60;13.60;;;14.00;99.90;;;;;;5051802;28;20454;-73
2021/11/05 12:15:18;;;;;;;15.70;14.90;;;13.90;99.90;;;;;;5036328;28;20488;-73
2021/11/05 12:18:10;;;;;;;16.27;15.37;;;14.00;99.90;;;;;;5051959;28;20447;-73
2021/11/05 12:20:43;;;;;;;14.77;13.63;;;13.60;99.90;;;;;;5051538;28;20448;-73
2021/11/05 12:23:21;;;;;;;16.57;15.60;;;13.80;99.90;;;;;;5051735;28;20942;-73
2021/11/05 12:25:56;;;;;;;15.27;14.50;;;13.90;99.90;;;;;;5051987;28;20501;-73
2021/11/05 12:28:25;;;;;;;15.57;14.67;;;14.20;99.90;;;;;;5050924;28;20452;-73
2021/11/05 12:30:54;;;;;;;16.13;15.23;;;14.40;99.90;;;;;;5051674;28;20472;-73
2021/11/05 12:33:32;;;;;;;16.40;15.50;;;14.50;99.90;;;;;;5051555;28;20506;-73
2021/11/05 12:36:00;;;;;;;15.17;14.37;;;14.40;99.90;;;;;;5051204;28;20778;-74
2021/11/05 12:38:27;;;;;;;16.30;15.40;;;14.60;99.90;;;;;;5051481;28;20938;-73